createdAt,value
2023-02-03T00:01:20.302Z,3.78
2023-02-03T00:04:28.297Z,3.71
2023-02-03T00:07:50.358Z,3.78
2023-02-03T00:10:53.030Z,3.72
2023-02-03T00:14:07.355Z,3.60
2023-02-03T00:17:15.297Z,3.69
2023-02-03T00:20:24.752Z,3.63
2023-02-03T00:23:40.288Z,3.71
2023-02-03T00:26:43.196Z,3.69
2023-02-03T00:29:58.348Z,3.77
2023-02-03T00:33:00.246Z,3.63
2023-02-03T00:36:16.304Z,3.64
2023-02-03T00:39:25.362Z,3.58
2023-02-03T00:42:35.853Z,3.57
2023-02-03T00:45:44.333Z,3.66
2023-02-03T00:48:53.268Z,3.50
2023-02-03T00:52:01.373Z,3.43
2023-02-03T00:55:10.003Z,3.51
2023-02-03T00:58:18.344Z,3.55
2023-02-03T01:01:33.624Z,3.44
2023-02-03T01:04:35.702Z,3.35
2023-02-03T01:07:57.342Z,3.38
2023-02-03T01:11:09.387Z,3.52
2023-02-03T01:14:17.334Z,3.51
2023-02-03T01:17:26.165Z,3.41
2023-02-03T01:20:34.393Z,3.38
2023-02-03T01:23:50.336Z,3.30
2023-02-03T01:26:52.221Z,3.25
2023-02-03T01:30:07.361Z,3.19
2023-02-03T01:33:09.317Z,3.21
2023-02-03T01:36:25.417Z,3.22
2023-02-03T01:39:34.265Z,3.14
2023-02-03T01:42:42.361Z,3.22
2023-02-03T01:45:57.397Z,3.22
2023-02-03T01:49:19.917Z,3.17
2023-02-03T01:52:28.352Z,3.21
2023-02-03T01:55:49.359Z,3.14
2023-02-03T01:58:51.850Z,3.13
2023-02-03T02:02:07.404Z,3.12
2023-02-03T02:05:16.261Z,3.03
2023-02-03T02:08:38.419Z,2.83
2023-02-03T02:11:53.402Z,2.91
2023-02-03T02:15:03.096Z,2.87
2023-02-03T02:18:35.345Z,2.81
2023-02-03T02:21:56.581Z,2.73
2023-02-03T02:25:31.371Z,2.80
2023-02-03T02:29:00.389Z,2.81
2023-02-03T02:32:34.318Z,2.85
2023-02-03T02:36:16.435Z,2.82
2023-02-03T02:39:54.452Z,2.74
2023-02-03T02:43:29.394Z,2.87
2023-02-03T02:46:44.439Z,2.91
2023-02-03T02:50:13.440Z,2.94
2023-02-03T02:53:24.441Z,2.83
2023-02-03T02:56:36.496Z,2.91
2023-02-03T02:59:44.376Z,2.92
2023-02-03T03:02:59.377Z,2.85
2023-02-03T03:06:12.379Z,2.89
2023-02-03T03:09:32.375Z,2.86
2023-02-03T03:12:38.036Z,2.84
2023-02-03T03:15:52.421Z,2.74
2023-02-03T03:19:07.359Z,2.82
2023-02-03T03:22:27.444Z,2.93
2023-02-03T03:25:45.351Z,2.90
2023-02-03T03:29:03.726Z,2.87
2023-02-03T03:32:12.377Z,2.85
2023-02-03T03:35:21.131Z,2.89
2023-02-03T03:38:37.391Z,2.90
2023-02-03T03:42:03.211Z,2.87
2023-02-03T03:45:21.369Z,2.73
2023-02-03T03:48:53.458Z,2.79
2023-02-03T03:52:01.319Z,2.57
2023-02-03T03:55:19.466Z,2.63
2023-02-03T03:58:27.902Z,2.67
2023-02-03T04:01:43.555Z,2.76
2023-02-03T04:04:48.088Z,2.76
2023-02-03T04:08:09.434Z,2.76
2023-02-03T04:11:18.387Z,2.76
2023-02-03T04:14:34.409Z,2.81
2023-02-03T04:17:36.257Z,2.86
2023-02-03T04:20:51.441Z,2.84
2023-02-03T04:23:59.424Z,2.87
2023-02-03T04:27:09.151Z,2.85
2023-02-03T04:30:18.458Z,2.85
2023-02-03T04:33:27.180Z,2.88
2023-02-03T04:36:35.398Z,2.90
2023-02-03T04:39:44.626Z,2.92
2023-02-03T04:42:59.384Z,2.82
2023-02-03T04:46:07.479Z,2.98
2023-02-03T04:49:16.046Z,3.01
2023-02-03T04:52:30.567Z,2.91
2023-02-03T04:55:32.571Z,3.02
2023-02-03T04:58:47.496Z,3.04
2023-02-03T05:01:55.418Z,3.05
2023-02-03T05:05:04.368Z,3.23
2023-02-03T05:08:19.479Z,3.19
2023-02-03T05:11:28.558Z,3.18
2023-02-03T05:14:37.399Z,3.12
2023-02-03T05:17:52.448Z,3.18
2023-02-03T05:21:01.379Z,3.22
2023-02-03T05:24:09.463Z,3.22
2023-02-03T05:27:18.119Z,3.20
2023-02-03T05:30:26.896Z,3.15
2023-02-03T05:33:35.152Z,3.20
2023-02-03T05:36:43.528Z,3.13
2023-02-03T05:39:58.492Z,3.19
2023-02-03T05:43:06.462Z,3.26
2023-02-03T05:46:21.471Z,3.17
2023-02-03T05:49:24.366Z,3.13
2023-02-03T05:52:40.483Z,3.10
2023-02-03T05:55:42.320Z,3.16
2023-02-03T05:58:57.441Z,3.21
2023-02-03T06:02:06.429Z,3.12
2023-02-03T06:05:15.128Z,3.17
2023-02-03T06:08:32.955Z,3.13
2023-02-03T06:11:41.292Z,3.20
2023-02-03T06:14:49.443Z,3.20
2023-02-03T06:17:58.108Z,3.20
2023-02-03T06:21:13.411Z,3.18
2023-02-03T06:24:21.440Z,3.18
2023-02-03T06:27:30.153Z,3.32
2023-02-03T06:30:38.548Z,3.25
2023-02-03T06:33:47.092Z,3.24
2023-02-03T06:36:55.469Z,3.24
2023-02-03T06:40:11.573Z,3.27
2023-02-03T06:43:20.488Z,3.32
2023-02-03T06:46:35.517Z,3.29
2023-02-03T06:49:44.064Z,3.31
2023-02-03T06:52:52.636Z,3.20
2023-02-03T06:56:01.235Z,3.25
2023-02-03T06:59:13.559Z,3.28
2023-02-03T07:02:22.402Z,3.29
2023-02-03T07:05:37.537Z,3.38
2023-02-03T07:08:52.525Z,3.43
2023-02-03T07:12:01.531Z,3.53
2023-02-03T07:15:17.765Z,3.66
2023-02-03T07:21:55.691Z,3.73
2023-02-03T07:25:11.488Z,3.97
2023-02-03T07:28:23.289Z,4.86
2023-02-03T07:31:31.772Z,5.36
2023-02-03T07:34:46.528Z,6.57
2023-02-03T07:37:54.502Z,7.44
2023-02-03T07:41:10.529Z,5.96
2023-02-03T07:44:12.909Z,6.16
2023-02-03T07:47:27.535Z,5.40
2023-02-03T07:50:36.743Z,5.11
2023-02-03T07:53:45.571Z,4.80
2023-02-03T07:57:00.499Z,4.98
2023-02-03T08:00:03.581Z,4.95
2023-02-03T08:03:20.499Z,5.23
2023-02-03T08:06:23.110Z,5.07
2023-02-03T08:09:44.485Z,5.03
2023-02-03T08:13:01.528Z,4.83
2023-02-03T08:16:11.350Z,4.53
2023-02-03T08:19:26.485Z,4.67
2023-02-03T08:22:35.296Z,4.67
2023-02-03T08:25:43.532Z,4.78
2023-02-03T08:28:59.508Z,4.79
2023-02-03T08:32:11.811Z,4.98
2023-02-03T08:35:24.568Z,5.31
2023-02-03T08:39:04.925Z,5.94
2023-02-03T08:42:20.493Z,6.34
2023-02-03T08:45:35.674Z,5.41
2023-02-03T08:48:44.547Z,4.82
2023-02-03T08:51:54.069Z,4.57
2023-02-03T08:55:03.612Z,4.43
2023-02-03T08:58:18.654Z,4.51
2023-02-03T09:01:33.582Z,5.00
2023-02-03T09:04:35.535Z,5.12
2023-02-03T09:07:52.288Z,5.17
2023-02-03T09:10:57.405Z,5.08
2023-02-03T09:14:12.543Z,4.65
2023-02-03T09:17:14.707Z,4.22
2023-02-03T09:20:30.015Z,3.88
2023-02-03T09:23:32.662Z,3.53
2023-02-03T09:26:47.550Z,3.35
2023-02-03T09:29:55.648Z,3.12
2023-02-03T09:33:04.192Z,2.85
2023-02-03T09:36:13.525Z,2.77
2023-02-03T09:39:23.296Z,2.58
2023-02-03T09:42:48.519Z,2.34
2023-02-03T09:46:05.586Z,2.37
2023-02-03T09:49:35.608Z,2.24
2023-02-03T09:52:51.535Z,2.31
2023-02-03T09:55:54.885Z,2.43
2023-02-03T09:59:11.604Z,2.36
2023-02-03T10:03:11.557Z,2.43
2023-02-03T10:06:43.532Z,2.51
2023-02-03T10:10:38.555Z,2.64
2023-02-03T10:14:16.572Z,2.63
2023-02-03T10:17:40.499Z,3.08
2023-02-03T10:21:01.568Z,3.97
2023-02-03T10:24:10.347Z,4.79
2023-02-03T10:27:29.548Z,4.56
2023-02-03T10:30:46.678Z,4.40
2023-02-03T10:34:00.419Z,3.97
2023-02-03T10:37:32.580Z,4.00
2023-02-03T10:40:47.589Z,3.69
2023-02-03T10:43:51.903Z,3.76
2023-02-03T10:47:06.554Z,4.12
2023-02-03T10:50:29.427Z,3.88
2023-02-03T10:53:34.921Z,3.73
2023-02-03T10:56:49.589Z,3.52
2023-02-03T11:00:22.342Z,3.58
2023-02-03T11:03:35.573Z,3.87
2023-02-03T11:10:39.239Z,3.85
2023-02-03T11:13:58.712Z,3.51
2023-02-03T11:17:07.782Z,3.42
2023-02-03T11:20:23.692Z,3.21
2023-02-03T11:23:26.095Z,3.04
2023-02-03T11:26:46.584Z,3.90
2023-02-03T11:30:00.568Z,3.68
2023-02-03T11:33:19.881Z,3.46
2023-02-03T11:36:29.591Z,4.85
2023-02-03T11:39:38.252Z,4.49
2023-02-03T11:42:48.571Z,3.99
2023-02-03T11:46:10.829Z,4.85
2023-02-03T11:49:34.479Z,4.58
2023-02-03T11:53:10.651Z,3.55
2023-02-03T11:56:53.558Z,3.93
2023-02-03T12:00:10.059Z,3.94
2023-02-03T12:03:44.628Z,3.80
2023-02-03T12:07:08.565Z,5.12
2023-02-03T12:10:40.572Z,4.05
2023-02-03T12:14:12.702Z,3.77
2023-02-03T12:17:41.623Z,3.13
2023-02-03T12:21:19.672Z,2.73
2023-02-03T12:24:54.558Z,2.69
2023-02-03T12:28:33.761Z,2.59
2023-02-03T12:31:53.649Z,2.55
2023-02-03T12:35:20.791Z,2.46
2023-02-03T12:38:45.604Z,2.39
2023-02-03T12:42:01.716Z,2.41
2023-02-03T12:45:24.614Z,2.54
2023-02-03T12:48:59.657Z,2.49
2023-02-03T12:52:24.320Z,2.49
2023-02-03T12:55:48.662Z,2.40
2023-02-03T12:59:09.660Z,2.40
2023-02-03T13:02:28.722Z,2.32
2023-02-03T13:05:44.944Z,2.36
2023-02-03T13:09:09.605Z,2.13
2023-02-03T13:12:47.848Z,2.32
2023-02-03T13:15:57.611Z,2.44
2023-02-03T13:19:53.673Z,2.39
2023-02-03T13:23:07.840Z,2.37
2023-02-03T13:26:52.644Z,2.46
2023-02-03T13:30:18.667Z,2.52
2023-02-03T13:33:56.638Z,2.69
2023-02-03T13:37:23.606Z,2.78
2023-02-03T13:40:58.627Z,2.77
2023-02-03T13:44:12.840Z,2.87
2023-02-03T13:47:27.775Z,2.91
2023-02-03T13:50:38.613Z,2.97
2023-02-03T13:53:50.592Z,3.04
2023-02-03T13:57:02.486Z,2.89
2023-02-03T14:00:33.661Z,2.93
2023-02-03T14:03:44.258Z,3.09
2023-02-03T14:07:06.634Z,3.07
2023-02-03T14:10:32.183Z,3.20
2023-02-03T14:13:40.640Z,3.24
2023-02-03T14:16:54.691Z,3.32
2023-02-03T14:20:03.762Z,3.40
2023-02-03T14:23:19.652Z,3.38
2023-02-03T14:26:41.726Z,3.27
2023-02-03T14:30:19.630Z,3.34
2023-02-03T14:33:50.188Z,3.39
2023-02-03T14:37:20.619Z,3.47
2023-02-03T14:40:43.689Z,3.49
2023-02-03T14:44:07.130Z,3.52
2023-02-03T14:47:40.653Z,3.51
2023-02-03T14:51:12.733Z,3.53
2023-02-03T14:54:41.196Z,3.58
2023-02-03T14:58:00.745Z,3.59
2023-02-03T15:01:25.016Z,3.65
2023-02-03T15:04:33.695Z,3.64
2023-02-03T15:07:56.689Z,3.74
2023-02-03T15:11:31.621Z,3.70
2023-02-03T15:14:46.640Z,3.70
2023-02-03T15:17:50.137Z,3.82
2023-02-03T15:21:05.652Z,3.74
2023-02-03T15:24:16.808Z,3.60
2023-02-03T15:27:34.647Z,3.76
2023-02-03T15:30:37.076Z,3.79
2023-02-03T15:33:53.632Z,3.81
2023-02-03T15:37:00.265Z,3.90
2023-02-03T15:40:22.695Z,3.92
2023-02-03T15:43:39.705Z,3.94
2023-02-03T15:46:58.819Z,3.91
2023-02-03T15:50:13.673Z,3.93
2023-02-03T15:53:45.338Z,4.01
2023-02-03T15:57:01.695Z,3.94
2023-02-03T16:00:28.719Z,3.82
2023-02-03T16:03:48.720Z,3.87
2023-02-03T16:07:04.676Z,3.89
2023-02-03T16:10:31.256Z,3.93
2023-02-03T16:13:49.722Z,3.92
2023-02-03T16:17:05.312Z,3.77
2023-02-03T16:20:31.852Z,3.73
2023-02-03T16:23:33.861Z,3.84
2023-02-03T16:26:48.698Z,3.88
2023-02-03T16:30:28.651Z,3.81
2023-02-03T16:33:38.695Z,3.83
2023-02-03T16:36:55.424Z,3.83
2023-02-03T16:40:03.747Z,3.99
2023-02-03T16:43:21.688Z,3.70
2023-02-03T16:46:29.702Z,3.76
2023-02-03T16:49:44.685Z,3.81
2023-02-03T16:52:46.536Z,3.76
2023-02-03T16:56:03.677Z,3.84
2023-02-03T16:59:12.324Z,3.73
2023-02-03T17:02:20.814Z,3.74
2023-02-03T17:05:29.622Z,3.89
2023-02-03T17:08:46.761Z,4.02
2023-02-03T17:11:55.685Z,4.06
2023-02-03T17:15:06.482Z,4.12
2023-02-03T17:18:17.722Z,4.20
2023-02-03T17:21:35.730Z,4.30
2023-02-03T17:24:37.779Z,4.31
2023-02-03T17:27:53.782Z,4.30
2023-02-03T17:31:06.337Z,4.36
2023-02-03T17:34:20.676Z,4.32
2023-02-03T17:37:22.568Z,4.41
2023-02-03T17:54:24.368Z,4.51
2023-02-03T17:57:38.734Z,4.50
2023-02-03T18:00:47.096Z,4.55
2023-02-03T18:04:04.753Z,4.57
2023-02-03T18:07:07.949Z,4.54
2023-02-03T18:10:29.943Z,4.51
2023-02-03T18:13:35.077Z,4.59
2023-02-03T18:16:50.690Z,4.54
2023-02-03T18:19:58.734Z,4.66
2023-02-03T18:23:07.909Z,4.78
2023-02-03T18:26:17.738Z,4.83
2023-02-03T18:29:28.119Z,4.95
2023-02-03T18:32:37.042Z,5.09
2023-02-03T18:35:51.699Z,5.08
2023-02-03T18:39:00.349Z,5.15
2023-02-03T18:42:14.709Z,5.10
2023-02-03T18:45:23.557Z,5.22
2023-02-03T18:48:32.734Z,5.19
2023-02-03T18:51:48.724Z,5.24
2023-02-03T18:54:57.561Z,5.37
2023-02-03T18:58:05.744Z,5.47
2023-02-03T19:01:28.846Z,5.53
2023-02-03T19:04:46.748Z,5.72
2023-02-03T19:07:55.687Z,5.73
2023-02-03T19:11:11.169Z,5.81
2023-02-03T19:14:20.718Z,5.84
2023-02-03T19:17:29.393Z,5.75
2023-02-03T19:20:43.720Z,5.68
2023-02-03T19:23:52.777Z,5.57
2023-02-03T19:27:02.664Z,5.58
2023-02-03T19:30:11.696Z,5.53
2023-02-03T19:33:20.938Z,5.58
2023-02-03T19:36:29.750Z,5.54
2023-02-03T19:39:38.793Z,5.56
2023-02-03T19:42:47.706Z,5.45
2023-02-03T19:45:56.709Z,5.38
2023-02-03T19:49:05.757Z,5.37
2023-02-03T19:52:21.769Z,5.36
2023-02-03T19:55:23.629Z,5.36
2023-02-03T19:58:40.761Z,5.39
2023-02-03T20:01:42.729Z,5.33
2023-02-03T20:04:57.779Z,5.25
2023-02-03T20:08:06.769Z,5.31
2023-02-03T20:11:22.872Z,5.12
2023-02-03T20:14:31.793Z,5.21
2023-02-03T20:17:47.804Z,5.22
2023-02-03T20:20:57.800Z,5.18
2023-02-03T20:24:14.781Z,5.28
2023-02-03T20:27:17.091Z,5.19
2023-02-03T20:30:33.170Z,5.17
2023-02-03T20:33:42.707Z,5.15
2023-02-03T20:36:51.769Z,5.14
2023-02-03T20:40:07.813Z,5.09
2023-02-03T20:43:16.873Z,5.10
2023-02-03T20:46:33.815Z,5.10
2023-02-03T20:49:43.041Z,5.13
2023-02-03T20:52:59.765Z,5.18
2023-02-03T20:56:01.963Z,5.16
2023-02-03T20:59:18.777Z,5.17
2023-02-03T21:02:27.835Z,5.15
2023-02-03T21:05:41.795Z,5.10
2023-02-03T21:08:58.801Z,5.13
2023-02-03T21:12:12.915Z,5.11
2023-02-03T21:15:37.842Z,5.24
2023-02-03T21:18:56.818Z,5.18
2023-02-03T21:22:17.514Z,5.09
2023-02-03T21:25:38.791Z,5.14
2023-02-03T21:28:50.572Z,5.09
2023-02-03T21:32:00.826Z,5.09
2023-02-03T21:35:24.208Z,5.03
2023-02-03T21:38:35.824Z,5.10
2023-02-03T21:41:51.824Z,5.12
2023-02-03T21:45:00.757Z,5.11
2023-02-03T21:48:37.852Z,5.10
2023-02-03T21:51:40.009Z,5.09
2023-02-03T21:54:55.882Z,5.15
2023-02-03T21:58:18.656Z,5.19
2023-02-03T22:01:40.793Z,5.09
2023-02-03T22:04:49.806Z,5.02
2023-02-03T22:08:20.411Z,5.04
2023-02-03T22:11:36.851Z,5.06
2023-02-03T22:14:39.041Z,5.10
2023-02-03T22:17:56.798Z,5.18
2023-02-03T22:21:04.794Z,5.20
2023-02-03T22:24:19.799Z,5.17
2023-02-03T22:27:34.845Z,5.18
2023-02-03T22:30:36.956Z,5.10
2023-02-03T22:33:52.802Z,5.16
2023-02-03T22:37:00.844Z,5.21
2023-02-03T22:40:16.842Z,5.13
2023-02-03T22:43:26.989Z,5.19
2023-02-03T22:46:35.845Z,5.21
2023-02-03T22:49:50.841Z,5.31
2023-02-03T22:52:53.117Z,5.31
2023-02-03T22:56:07.877Z,5.35
2023-02-03T22:59:09.684Z,5.23
2023-02-03T23:02:24.832Z,5.38
2023-02-03T23:05:33.822Z,5.40
2023-02-03T23:08:50.113Z,5.46
2023-02-03T23:11:58.958Z,5.53
2023-02-03T23:15:14.831Z,5.51
2023-02-03T23:18:22.870Z,5.49
2023-02-03T23:21:37.880Z,5.50
2023-02-03T23:24:46.625Z,5.52
2023-02-03T23:27:54.852Z,5.57
2023-02-03T23:31:03.651Z,5.60
2023-02-03T23:34:11.840Z,5.62
2023-02-03T23:37:26.796Z,5.65
2023-02-03T23:40:34.844Z,5.66
2023-02-03T23:43:49.910Z,5.74
2023-02-03T23:46:51.780Z,5.70
2023-02-03T23:50:06.811Z,5.71
2023-02-03T23:53:14.873Z,5.75
2023-02-03T23:56:29.823Z,5.83
2023-02-03T23:59:32.048Z,5.81
